Time;durP1;ratioP1;P1;durP2;ratioP2;P2;SDS_P1;SDS_P2;PMS_P1;PMS_P2;Temp;Humidity;BMP_temperature;BMP_pressure;BME280_temperature;BME280_humidity;BME280_pressure;Samples;Min_cycle;Max_cycle;Signal;HPM_P1;HPM_P2
2023/08/12 00:04:31;;;;;;;1999.90;999.90;;;;;;;;;;6732238;88;20205;-78
2023/08/12 00:14:32;;;;;;;1999.90;999.90;;;;;;;;;;6726932;88;20201;-78
2023/08/12 00:24:33;;;;;;;1999.90;999.90;;;;;;;;;;6736520;88;20183;-78
2023/08/12 00:34:34;;;;;;;1999.90;999.90;;;;;;;;;;6738847;88;20315;-78
2023/08/12 00:44:35;;;;;;;1999.90;999.90;;;;;;;;;;6734392;88;20193;-78
2023/08/12 00:54:36;;;;;;;1999.90;999.90;;;;;;;;;;6735641;88;20212;-77
2023/08/12 01:04:37;;;;;;;1999.90;999.90;;;;;;;;;;6742983;88;20679;-79
2023/08/12 01:14:52;;;;;;;1999.90;999.90;;;;;;;;;;6743028;88;20312;-77
2023/08/12 01:24:53;;;;;;;1999.90;999.90;;;;;;;;;;6706664;88;20197;-78
2023/08/12 01:35:09;;;;;;;1999.90;999.90;;;;;;;;;;6701301;88;20201;-78
2023/08/12 01:45:10;;;;;;;1999.90;999.90;;;;;;;;;;6705623;88;20776;-77
2023/08/12 01:55:11;;;;;;;1999.90;999.90;;;;;;;;;;6720120;88;20292;-77
2023/08/12 02:05:13;;;;;;;1999.90;999.90;;;;;;;;;;6719039;88;20361;-78
2023/08/12 02:15:14;;;;;;;1999.90;999.90;;;;;;;;;;6717889;88;20743;-79
2023/08/12 02:25:15;;;;;;;1999.90;999.90;;;;;;;;;;6717935;88;20199;-79
2023/08/12 02:35:16;;;;;;;1999.90;999.90;;;;;;;;;;6717095;88;20192;-80
2023/08/12 02:45:17;;;;;;;1999.90;999.90;;;;;;;;;;6716849;88;20219;-78
2023/08/12 02:55:18;;;;;;;1999.90;999.90;;;;;;;;;;6716324;88;20989;-79
2023/08/12 03:05:19;;;;;;;1999.90;999.90;;;;;;;;;;6716437;88;20184;-78
2023/08/12 03:15:20;;;;;;;1999.90;999.90;;;;;;;;;;6717877;88;20325;-78
2023/08/12 03:25:22;;;;;;;1999.90;999.90;;;;;;;;;;6717488;88;20270;-78
2023/08/12 03:35:23;;;;;;;1999.90;999.90;;;;;;;;;;6716556;88;20208;-79
2023/08/12 03:55:31;;;;;;;1999.90;999.90;;;;;;;;;;6714714;88;20218;-83
2023/08/12 04:05:32;;;;;;;1999.90;999.90;;;;;;;;;;6699580;89;20185;-83
2023/08/12 04:15:33;;;;;;;1999.90;999.90;;;;;;;;;;6700580;89;20230;-81
2023/08/12 04:25:34;;;;;;;1999.90;999.90;;;;;;;;;;6700011;89;20194;-85
2023/08/12 04:35:35;;;;;;;1999.90;999.90;;;;;;;;;;6700443;89;20171;-84
2023/08/12 04:45:36;;;;;;;1999.90;999.90;;;;;;;;;;6700303;88;20159;-85
2023/08/12 04:55:38;;;;;;;1999.90;999.90;;;;;;;;;;6716900;88;20764;-85
2023/08/12 05:05:39;;;;;;;1999.90;999.90;;;;;;;;;;6707260;88;20198;-83
2023/08/12 05:15:40;;;;;;;1999.90;999.90;;;;;;;;;;6716452;88;20261;-85
2023/08/12 05:25:41;;;;;;;1999.90;999.90;;;;;;;;;;6716888;88;20167;-85
2023/08/12 05:35:42;;;;;;;1999.90;999.90;;;;;;;;;;6717070;88;20269;-84
2023/08/12 05:45:43;;;;;;;1999.90;999.90;;;;;;;;;;6716651;88;20154;-82
2023/08/12 05:55:44;;;;;;;1999.90;999.90;;;;;;;;;;6715992;88;20753;-84
2023/08/12 06:05:46;;;;;;;1999.90;999.90;;;;;;;;;;6716447;88;20707;-85
2023/08/12 06:15:47;;;;;;;1999.90;999.90;;;;;;;;;;6710847;88;20988;-81
2023/08/12 06:25:48;;;;;;;1999.90;999.90;;;;;;;;;;6712901;88;20241;-81
2023/08/12 06:35:50;;;;;;;1999.90;999.90;;;;;;;;;;6716040;88;20206;-81
2023/08/12 06:45:51;;;;;;;1999.90;999.90;;;;;;;;;;6716343;88;20204;-80
2023/08/12 06:55:52;;;;;;;1999.90;999.90;;;;;;;;;;6714820;88;20185;-80
2023/08/12 07:05:54;;;;;;;1999.90;999.90;;;;;;;;;;6712391;88;20191;-79
2023/08/12 07:15:55;;;;;;;1999.90;999.90;;;;;;;;;;6709773;88;20185;-82
2023/08/12 07:25:56;;;;;;;1999.90;999.90;;;;;;;;;;6739054;88;20208;-81
2023/08/12 07:35:57;;;;;;;1999.90;999.90;;;;;;;;;;6742496;88;20248;-80
2023/08/12 07:45:58;;;;;;;1999.90;999.90;;;;;;;;;;6716575;88;20230;-81
2023/08/12 07:55:59;;;;;;;1999.90;999.90;;;;;;;;;;6709819;88;20179;-82
2023/08/12 08:06:00;;;;;;;1999.90;999.90;;;;;;;;;;6707482;88;20158;-82
2023/08/12 08:16:01;;;;;;;1999.90;999.90;;;;;;;;;;6705883;88;20182;-82
2023/08/12 08:26:02;;;;;;;1999.90;999.90;;;;;;;;;;6707687;88;20758;-84
2023/08/12 08:56:11;;;;;;;1999.90;999.90;;;;;;;;;;6725047;88;20950;-84
2023/08/12 09:06:12;;;;;;;1999.90;999.90;;;;;;;;;;6732005;88;20889;-82
2023/08/12 09:16:14;;;;;;;1999.90;999.90;;;;;;;;;;6730096;88;20169;-83
2023/08/12 09:26:19;;;;;;;1999.90;999.90;;;;;;;;;;6723132;88;20206;-80
2023/08/12 09:36:21;;;;;;;1999.90;999.90;;;;;;;;;;6718756;88;20218;-82
2023/08/12 09:56:26;;;;;;;;;;;;;;;;;;6713381;88;20678;-80
2023/08/12 10:06:27;;;;;;;1999.90;999.90;;;;;;;;;;6719336;88;20062;-80
2023/08/12 10:16:30;;;;;;;1999.90;999.90;;;;;;;;;;6720543;88;20721;-80
2023/08/12 10:26:31;;;;;;;1999.90;999.90;;;;;;;;;;6742268;88;20196;-80
2023/08/12 10:36:34;;;;;;;1999.90;999.90;;;;;;;;;;6743656;88;20216;-79
2023/08/12 10:46:36;;;;;;;1999.90;999.90;;;;;;;;;;6744886;87;20180;-80
2023/08/12 10:56:56;;;;;;;1999.90;999.90;;;;;;;;;;6716599;88;20241;-81
2023/08/12 11:06:57;;;;;;;1999.90;999.90;;;;;;;;;;6708054;88;20194;-80
2023/08/12 11:16:58;;;;;;;1999.90;999.90;;;;;;;;;;6715661;88;20560;-80
2023/08/12 11:27:00;;;;;;;1999.90;999.90;;;;;;;;;;6722195;88;20636;-77
2023/08/12 11:37:01;;;;;;;1999.90;999.90;;;;;;;;;;6730641;88;20171;-79
2023/08/12 11:47:02;;;;;;;1999.90;999.90;;;;;;;;;;6737618;87;20321;-81
2023/08/12 11:57:03;;;;;;;1999.90;999.90;;;;;;;;;;6742825;88;20208;-80
2023/08/12 12:07:17;;;;;;;1999.90;999.90;;;;;;;;;;6746346;88;20219;-81
2023/08/12 12:17:18;;;;;;;1999.90;999.90;;;;;;;;;;6717659;88;20193;-82
2023/08/12 12:27:19;;;;;;;1999.90;999.90;;;;;;;;;;6730885;88;20635;-80
2023/08/12 12:37:20;;;;;;;1999.90;999.90;;;;;;;;;;6737986;88;20774;-82
2023/08/12 12:47:21;;;;;;;1999.90;999.90;;;;;;;;;;6742489;88;20343;-81
2023/08/12 12:57:22;;;;;;;1999.90;999.90;;;;;;;;;;6748251;88;20205;-82
2023/08/12 13:07:23;;;;;;;1999.90;999.90;;;;;;;;;;6736952;88;20217;-80
2023/08/12 13:17:24;;;;;;;1999.90;999.90;;;;;;;;;;6742842;88;20185;-82
2023/08/12 13:27:25;;;;;;;1999.90;999.90;;;;;;;;;;6735488;88;20192;-81
2023/08/12 13:37:26;;;;;;;1999.90;999.90;;;;;;;;;;6737835;88;20312;-81
2023/08/12 13:47:27;;;;;;;1999.90;999.90;;;;;;;;;;6740162;88;20687;-81
2023/08/12 13:57:28;;;;;;;1999.90;999.90;;;;;;;;;;6732189;88;20297;-82
2023/08/12 14:07:30;;;;;;;1999.90;999.90;;;;;;;;;;6737476;88;20206;-79
2023/08/12 14:17:31;;;;;;;1999.90;999.90;;;;;;;;;;6732868;88;20305;-80
2023/08/12 14:27:32;;;;;;;1999.90;999.90;;;;;;;;;;6734851;88;20390;-80
2023/08/12 14:37:33;;;;;;;1999.90;999.90;;;;;;;;;;6740448;88;20341;-79
2023/08/12 14:47:34;;;;;;;1999.90;999.90;;;;;;;;;;6732855;88;20670;-79
2023/08/12 14:57:35;;;;;;;1999.90;999.90;;;;;;;;;;6738436;88;20209;-81
2023/08/12 15:07:36;;;;;;;1999.90;999.90;;;;;;;;;;6736263;88;20260;-79
2023/08/12 15:17:37;;;;;;;1999.90;999.90;;;;;;;;;;6736411;88;20185;-80
2023/08/12 15:27:38;;;;;;;1999.90;999.90;;;;;;;;;;6745488;88;20264;-79
2023/08/12 15:37:39;;;;;;;1999.90;999.90;;;;;;;;;;6735270;88;20250;-79
2023/08/12 15:48:01;;;;;;;1999.90;999.90;;;;;;;;;;6735759;77;20185;-79
2023/08/12 15:58:02;;;;;;;1999.90;999.90;;;;;;;;;;6733794;88;20269;-79
2023/08/12 16:08:03;;;;;;;1999.90;999.90;;;;;;;;;;6733055;88;20213;-79
2023/08/12 16:18:04;;;;;;;1999.90;999.90;;;;;;;;;;6729209;88;20213;-78
2023/08/12 16:28:05;;;;;;;1999.90;999.90;;;;;;;;;;6714201;88;20212;-78
2023/08/12 16:38:06;;;;;;;1999.90;999.90;;;;;;;;;;6737640;88;20181;-79
2023/08/12 16:48:08;;;;;;;1999.90;999.90;;;;;;;;;;6715817;88;20363;-79
2023/08/12 16:58:08;;;;;;;1999.90;999.90;;;;;;;;;;6728804;88;20244;-79
2023/08/12 17:08:09;;;;;;;1999.90;999.90;;;;;;;;;;6737093;88;20789;-82
2023/08/12 17:18:10;;;;;;;1999.90;999.90;;;;;;;;;;6731685;88;20207;-77
2023/08/12 17:28:11;;;;;;;1999.90;999.90;;;;;;;;;;6739123;88;20641;-79
2023/08/12 17:38:13;;;;;;;1999.90;999.90;;;;;;;;;;6734286;88;20207;-79
2023/08/12 17:48:14;;;;;;;1999.90;999.90;;;;;;;;;;6718694;88;20305;-80
2023/08/12 17:58:15;;;;;;;1999.90;999.90;;;;;;;;;;6725984;88;20281;-81
2023/08/12 18:08:17;;;;;;;1999.90;999.90;;;;;;;;;;6730251;88;20200;-83
2023/08/12 18:18:19;;;;;;;1999.90;999.90;;;;;;;;;;6711726;88;20173;-85
2023/08/12 18:29:06;;;;;;;1999.90;999.90;;;;;;;;;;6714312;88;20202;-85
2023/08/12 18:38:48;;;;;;;1999.90;999.90;;;;;;;;;;6719967;88;20616;-82
2023/08/12 18:48:49;;;;;;;1999.90;999.90;;;;;;;;;;6742267;88;20271;-82
2023/08/12 18:58:53;;;;;;;1999.90;999.90;;;;;;;;;;6744374;88;20219;-83
2023/08/12 19:08:54;;;;;;;1999.90;999.90;;;;;;;;;;6745046;88;20215;-83
2023/08/12 19:18:55;;;;;;;1999.90;999.90;;;;;;;;;;6743233;88;20185;-84
2023/08/12 19:28:56;;;;;;;1999.90;999.90;;;;;;;;;;6748583;88;20157;-83
2023/08/12 19:38:57;;;;;;;1999.90;999.90;;;;;;;;;;6742011;88;20211;-82
2023/08/12 19:48:58;;;;;;;1999.90;999.90;;;;;;;;;;6742164;88;20234;-81
2023/08/12 19:58:59;;;;;;;1999.90;999.90;;;;;;;;;;6745401;88;20203;-82
2023/08/12 20:09:00;;;;;;;1999.90;999.90;;;;;;;;;;6743922;88;20189;-82
2023/08/12 20:19:01;;;;;;;1999.90;999.90;;;;;;;;;;6725280;88;20694;-81
2023/08/12 20:29:02;;;;;;;1999.90;999.90;;;;;;;;;;6725086;88;20224;-81
2023/08/12 20:39:03;;;;;;;1999.90;999.90;;;;;;;;;;6727262;88;20206;-80
2023/08/12 20:49:04;;;;;;;1999.90;999.90;;;;;;;;;;6736889;88;20653;-79
2023/08/12 20:59:05;;;;;;;1999.90;999.90;;;;;;;;;;6728628;88;20316;-79
2023/08/12 21:09:06;;;;;;;1999.90;999.90;;;;;;;;;;6726732;88;20604;-79
2023/08/12 21:19:07;;;;;;;1999.90;999.90;;;;;;;;;;6724896;88;20204;-79
2023/08/12 21:29:08;;;;;;;1999.90;999.90;;;;;;;;;;6725736;88;20225;-80
2023/08/12 21:39:09;;;;;;;1999.90;999.90;;;;;;;;;;6728221;88;20193;-79
2023/08/12 21:49:10;;;;;;;1999.90;999.90;;;;;;;;;;6720123;88;20185;-78
2023/08/12 21:59:11;;;;;;;1999.90;999.90;;;;;;;;;;6722213;88;20617;-78
2023/08/12 22:09:12;;;;;;;1999.90;999.90;;;;;;;;;;6722330;88;20652;-78
2023/08/12 22:19:13;;;;;;;1999.90;999.90;;;;;;;;;;6722465;88;20702;-78
2023/08/12 22:29:14;;;;;;;1999.90;999.90;;;;;;;;;;6728943;88;20201;-79
2023/08/12 22:39:15;;;;;;;1999.90;999.90;;;;;;;;;;6731014;88;20183;-79
2023/08/12 22:49:16;;;;;;;1999.90;999.90;;;;;;;;;;6728815;88;20209;-79
2023/08/12 22:59:17;;;;;;;1999.90;999.90;;;;;;;;;;6727876;88;20219;-79
2023/08/12 23:09:18;;;;;;;1999.90;999.90;;;;;;;;;;6728065;88;20231;-79
2023/08/12 23:19:19;;;;;;;1999.90;999.90;;;;;;;;;;6733405;88;20197;-80
2023/08/12 23:29:20;;;;;;;1999.90;999.90;;;;;;;;;;6727500;88;20186;-80
2023/08/12 23:39:21;;;;;;;1999.90;999.90;;;;;;;;;;6730704;88;20182;-78
2023/08/12 23:49:22;;;;;;;1999.90;999.90;;;;;;;;;;6742665;88;20252;-80
2023/08/12 23:59:23;;;;;;;1999.90;999.90;;;;;;;;;;6744515;88;20193;-81
